createdAt,value
2018-12-04T00:00:27.336Z,21.40
2018-12-04T00:02:53.310Z,21.40
2018-12-04T00:05:19.285Z,21.40
2018-12-04T00:07:45.278Z,21.40
2018-12-04T00:10:11.274Z,21.40
2018-12-04T00:12:37.264Z,21.40
2018-12-04T00:15:03.279Z,21.40
2018-12-04T00:17:29.278Z,21.40
2018-12-04T00:19:55.270Z,21.40
2018-12-04T00:22:21.259Z,21.40
2018-12-04T00:24:47.262Z,21.40
2018-12-04T00:27:13.228Z,21.30
2018-12-04T00:29:39.210Z,21.30
2018-12-04T00:32:05.182Z,21.40
2018-12-04T00:34:31.190Z,21.30
2018-12-04T00:36:57.210Z,21.40
2018-12-04T00:39:23.271Z,21.30
2018-12-04T00:41:49.428Z,21.30
2018-12-04T00:44:15.392Z,21.30
2018-12-04T00:46:41.377Z,21.30
2018-12-04T00:49:07.364Z,21.30
2018-12-04T00:51:33.333Z,21.30
2018-12-04T00:53:59.281Z,21.30
2018-12-04T00:56:25.282Z,21.30
2018-12-04T00:58:51.227Z,21.20
2018-12-04T01:01:17.237Z,21.20
2018-12-04T01:03:43.210Z,21.20
2018-12-04T01:06:09.196Z,21.30
2018-12-04T01:08:35.184Z,21.30
2018-12-04T01:11:01.159Z,21.20
2018-12-04T01:13:27.119Z,21.20
2018-12-04T01:15:53.081Z,21.20
2018-12-04T01:18:19.043Z,21.20
2018-12-04T01:20:45.061Z,21.20
2018-12-04T01:23:11.037Z,21.20
2018-12-04T01:25:37.072Z,21.20
2018-12-04T01:28:03.062Z,21.20
2018-12-04T01:30:29.019Z,21.20
2018-12-04T01:32:54.996Z,21.20
2018-12-04T01:35:20.957Z,21.20
2018-12-04T01:37:46.968Z,21.20
2018-12-04T01:40:12.964Z,21.20
2018-12-04T01:42:38.947Z,21.20
2018-12-04T01:45:05.019Z,21.20
2018-12-04T01:47:30.975Z,21.10
2018-12-04T01:49:56.965Z,21.10
2018-12-04T01:52:22.911Z,21.20
2018-12-04T01:54:48.868Z,21.10
2018-12-04T01:57:14.852Z,21.10
2018-12-04T01:59:40.811Z,21.10
2018-12-04T02:02:06.787Z,21.10
2018-12-04T02:04:32.776Z,21.10
2018-12-04T02:06:58.755Z,21.10
2018-12-04T02:09:24.760Z,21.10
2018-12-04T02:11:50.722Z,21.10
2018-12-04T02:14:16.700Z,21.10
2018-12-04T02:16:42.646Z,21.10
2018-12-04T02:19:08.630Z,21.10
2018-12-04T02:21:34.592Z,21.10
2018-12-04T02:24:00.570Z,21.10
2018-12-04T02:26:26.533Z,21.10
2018-12-04T02:28:52.518Z,21.10
2018-12-04T02:31:18.514Z,21.10
2018-12-04T02:33:44.498Z,21.10
2018-12-04T02:36:10.474Z,21.10
2018-12-04T02:38:36.441Z,21.10
2018-12-04T02:41:02.410Z,21.10
2018-12-04T02:43:28.375Z,21.10
2018-12-04T02:45:54.348Z,21.10
2018-12-04T02:48:20.326Z,21.10
2018-12-04T02:50:46.296Z,21.10
2018-12-04T02:53:12.286Z,21.10
2018-12-04T02:55:39.244Z,21.10
2018-12-04T02:58:05.231Z,21.10
2018-12-04T03:00:31.200Z,21.10
2018-12-04T03:02:57.163Z,21.10
2018-12-04T03:05:23.155Z,21.10
2018-12-04T03:07:49.115Z,21.10
2018-12-04T03:10:15.238Z,21.00
2018-12-04T03:12:41.235Z,21.00
2018-12-04T03:15:07.241Z,21.00
2018-12-04T03:17:33.226Z,21.10
2018-12-04T03:19:59.240Z,21.10
2018-12-04T03:22:25.198Z,21.10
2018-12-04T03:24:51.170Z,21.00
2018-12-04T03:27:17.159Z,21.00
2018-12-04T03:29:43.140Z,21.00
2018-12-04T03:32:09.170Z,21.00
2018-12-04T03:34:35.151Z,21.00
2018-12-04T03:37:01.162Z,21.00
2018-12-04T03:39:27.149Z,21.00
2018-12-04T03:41:53.120Z,21.00
2018-12-04T03:44:19.117Z,21.00
2018-12-04T03:46:45.115Z,21.00
2018-12-04T03:49:11.105Z,21.00
2018-12-04T03:51:37.090Z,21.00
2018-12-04T03:54:03.074Z,21.00
2018-12-04T03:56:29.058Z,21.00
2018-12-04T03:58:55.053Z,21.00
2018-12-04T04:01:21.017Z,21.00
2018-12-04T04:03:46.998Z,21.00
2018-12-04T04:06:12.984Z,21.00
2018-12-04T04:08:39.004Z,21.00
2018-12-04T04:11:05.003Z,21.00
2018-12-04T04:13:30.989Z,21.00
2018-12-04T04:15:57.021Z,21.00
2018-12-04T04:18:23.013Z,21.00
2018-12-04T04:20:48.994Z,21.00
2018-12-04T04:23:14.993Z,21.00
2018-12-04T04:25:41.755Z,21.00
2018-12-04T04:28:07.707Z,21.00
2018-12-04T04:30:33.663Z,21.00
2018-12-04T04:32:59.659Z,21.00
2018-12-04T04:35:25.651Z,21.00
2018-12-04T04:37:51.627Z,21.00
2018-12-04T04:40:17.623Z,21.00
2018-12-04T04:42:43.699Z,21.00
2018-12-04T04:45:09.659Z,21.00
2018-12-04T04:47:35.681Z,20.90
2018-12-04T04:50:01.659Z,21.00
2018-12-04T04:52:27.748Z,20.90
2018-12-04T04:54:53.742Z,20.90
2018-12-04T04:57:19.736Z,20.90
2018-12-04T04:59:45.701Z,20.90
2018-12-04T05:02:11.691Z,20.90
2018-12-04T05:04:37.683Z,21.00
2018-12-04T05:07:03.684Z,20.90
2018-12-04T05:09:29.673Z,21.00
2018-12-04T05:11:55.651Z,21.00
2018-12-04T05:14:21.649Z,21.00
2018-12-04T05:16:47.635Z,21.00
2018-12-04T05:19:13.601Z,21.00
2018-12-04T05:21:39.626Z,21.00
2018-12-04T05:24:05.622Z,21.00
2018-12-04T05:26:31.617Z,21.00
2018-12-04T05:28:57.606Z,21.00
2018-12-04T05:31:23.617Z,21.00
2018-12-04T05:33:49.681Z,21.00
2018-12-04T05:36:15.709Z,21.00
2018-12-04T05:38:41.699Z,21.00
2018-12-04T05:41:07.686Z,21.00
2018-12-04T05:43:33.661Z,21.00
2018-12-04T05:45:59.671Z,21.00
2018-12-04T05:48:25.636Z,21.00
2018-12-04T05:50:51.635Z,21.00
2018-12-04T05:53:17.632Z,21.10
2018-12-04T05:55:43.634Z,21.10
2018-12-04T05:58:09.636Z,21.10
2018-12-04T06:00:35.630Z,21.20
2018-12-04T06:03:01.625Z,21.20
2018-12-04T06:05:27.599Z,21.20
2018-12-04T06:07:53.570Z,21.20
2018-12-04T06:10:19.575Z,21.20
2018-12-04T06:12:45.647Z,21.30
2018-12-04T06:15:11.626Z,21.20
2018-12-04T06:17:37.588Z,21.20
2018-12-04T06:20:03.600Z,21.20
2018-12-04T06:22:29.628Z,21.20
2018-12-04T06:24:55.637Z,21.20
2018-12-04T06:27:21.604Z,21.20
2018-12-04T06:29:47.778Z,21.10
2018-12-04T06:32:13.824Z,21.20
2018-12-04T06:34:39.835Z,21.10
2018-12-04T06:37:05.835Z,21.20
2018-12-04T06:39:31.828Z,21.20
2018-12-04T06:41:57.784Z,21.20
2018-12-04T06:44:23.776Z,21.10
2018-12-04T06:46:49.765Z,21.10
2018-12-04T06:49:15.766Z,21.10
2018-12-04T06:51:41.738Z,21.10
2018-12-04T06:54:07.724Z,21.10
2018-12-04T06:56:33.677Z,21.10
2018-12-04T06:58:59.666Z,21.10
2018-12-04T07:01:25.685Z,21.10
2018-12-04T07:03:51.637Z,21.10
2018-12-04T07:06:17.610Z,21.10
2018-12-04T07:08:44.658Z,21.10
2018-12-04T07:11:10.726Z,21.00
2018-12-04T07:13:36.705Z,21.00
2018-12-04T07:16:02.686Z,21.00
2018-12-04T07:18:28.694Z,21.00
2018-12-04T07:20:54.673Z,21.00
2018-12-04T07:23:20.654Z,21.00
2018-12-04T07:25:46.634Z,21.00
2018-12-04T07:28:12.619Z,21.00
2018-12-04T07:30:38.622Z,20.90
2018-12-04T07:33:04.610Z,20.90
2018-12-04T07:35:30.595Z,20.90
2018-12-04T07:37:56.569Z,20.90
2018-12-04T07:40:22.534Z,20.90
2018-12-04T07:42:48.515Z,20.90
2018-12-04T07:45:14.517Z,20.90
2018-12-04T07:47:40.509Z,20.90
2018-12-04T07:50:06.466Z,20.90
2018-12-04T07:52:32.434Z,20.90
2018-12-04T07:54:58.574Z,20.90
2018-12-04T07:57:24.567Z,20.90
2018-12-04T07:59:50.673Z,20.90
2018-12-04T08:02:16.653Z,20.80
2018-12-04T08:04:42.617Z,20.80
2018-12-04T08:07:08.596Z,20.80
2018-12-04T08:09:34.566Z,20.80
2018-12-04T08:12:00.532Z,20.80
2018-12-04T08:14:26.527Z,20.80
2018-12-04T08:16:52.505Z,20.80
2018-12-04T08:19:18.506Z,20.80
2018-12-04T08:21:44.473Z,20.80
2018-12-04T08:24:10.488Z,20.70
2018-12-04T08:26:36.506Z,20.80
2018-12-04T08:29:02.500Z,20.70
2018-12-04T08:31:28.482Z,20.70
2018-12-04T08:33:54.456Z,20.80
2018-12-04T08:36:20.469Z,20.70
2018-12-04T08:38:46.462Z,20.70
2018-12-04T08:41:12.436Z,20.70
2018-12-04T08:43:38.398Z,20.70
2018-12-04T08:46:04.360Z,20.70
2018-12-04T08:48:30.321Z,20.70
2018-12-04T08:50:56.321Z,20.70
2018-12-04T08:53:22.318Z,20.70
2018-12-04T08:55:48.902Z,20.70
2018-12-04T08:58:14.877Z,20.70
2018-12-04T09:00:40.843Z,20.70
2018-12-04T09:03:06.818Z,20.70
2018-12-04T09:05:32.814Z,20.70
2018-12-04T09:07:58.898Z,20.60
2018-12-04T09:10:24.887Z,20.60
2018-12-04T09:12:50.885Z,20.70
2018-12-04T09:15:16.926Z,20.70
2018-12-04T09:17:42.902Z,20.70
2018-12-04T09:20:08.925Z,20.60
2018-12-04T09:22:34.978Z,20.60
2018-12-04T09:25:01.041Z,20.60
2018-12-04T09:27:27.230Z,20.60
2018-12-04T09:29:53.431Z,20.60
2018-12-04T09:32:19.522Z,20.60
2018-12-04T09:34:45.524Z,20.60
2018-12-04T09:37:11.523Z,20.60
2018-12-04T09:39:37.659Z,20.60
2018-12-04T09:42:03.658Z,20.60
2018-12-04T09:44:29.657Z,20.60
2018-12-04T09:46:55.669Z,20.60
2018-12-04T09:49:21.640Z,20.50
2018-12-04T09:51:47.623Z,20.60
2018-12-04T09:54:13.590Z,20.60
2018-12-04T09:56:39.575Z,20.50
2018-12-04T09:59:05.642Z,20.50
2018-12-04T10:01:31.776Z,20.50
2018-12-04T10:03:57.765Z,20.50
2018-12-04T10:06:23.736Z,20.50
2018-12-04T10:08:49.838Z,20.50
2018-12-04T10:11:15.854Z,20.50
2018-12-04T10:13:41.841Z,20.50
2018-12-04T10:16:07.845Z,20.50
2018-12-04T10:18:33.869Z,20.50
2018-12-04T10:20:59.938Z,20.40
2018-12-04T10:23:25.898Z,20.50
2018-12-04T10:25:51.894Z,20.50
2018-12-04T10:28:17.887Z,20.50
2018-12-04T10:30:45.905Z,20.50
2018-12-04T10:33:11.895Z,20.50
2018-12-04T10:35:37.986Z,20.50
2018-12-04T10:38:03.969Z,20.50
2018-12-04T10:40:29.959Z,20.50
2018-12-04T10:42:58.890Z,20.50
2018-12-04T10:45:24.886Z,20.50
2018-12-04T10:47:50.897Z,20.50
2018-12-04T10:50:16.879Z,20.50
2018-12-04T10:52:43.155Z,20.50
2018-12-04T10:55:09.180Z,20.40
2018-12-04T10:57:35.154Z,20.40
2018-12-04T11:00:01.120Z,20.40
2018-12-04T11:02:29.126Z,20.40
2018-12-04T11:04:55.154Z,20.50
2018-12-04T11:07:21.211Z,20.50
2018-12-04T11:09:47.204Z,20.40
2018-12-04T11:12:13.198Z,20.40
2018-12-04T11:14:39.193Z,20.40
2018-12-04T11:17:05.198Z,20.40
2018-12-04T11:19:31.175Z,20.40
2018-12-04T11:21:57.163Z,20.40
2018-12-04T11:24:23.168Z,20.40
2018-12-04T11:26:49.145Z,20.40
2018-12-04T11:29:15.167Z,20.40
2018-12-04T11:31:41.155Z,20.40
2018-12-04T11:34:07.128Z,20.40
2018-12-04T11:36:33.092Z,20.40
2018-12-04T11:38:59.090Z,20.40
2018-12-04T11:41:25.138Z,20.40
2018-12-04T11:43:51.136Z,20.40
2018-12-04T11:46:17.113Z,20.40
2018-12-04T11:48:43.116Z,20.40
2018-12-04T11:51:09.127Z,20.40
2018-12-04T11:53:35.101Z,20.30
2018-12-04T11:56:01.124Z,20.40
2018-12-04T11:58:27.084Z,20.30
2018-12-04T12:00:53.056Z,20.40
2018-12-04T12:03:19.046Z,20.30
2018-12-04T12:05:45.304Z,20.30
2018-12-04T12:08:11.284Z,20.30
2018-12-04T12:10:37.299Z,20.30
2018-12-04T12:13:03.277Z,20.30
2018-12-04T12:15:29.256Z,20.30
2018-12-04T12:17:55.242Z,20.30
2018-12-04T12:20:21.228Z,20.30
2018-12-04T12:22:47.224Z,20.30
2018-12-04T12:25:13.216Z,20.30
2018-12-04T12:27:42.094Z,20.30
2018-12-04T12:30:08.093Z,20.30
2018-12-04T12:32:34.091Z,20.20
2018-12-04T12:35:00.050Z,20.20
2018-12-04T12:37:26.042Z,20.20
2018-12-04T12:39:52.045Z,20.30
2018-12-04T12:42:18.070Z,20.20
2018-12-04T12:44:44.061Z,20.20
2018-12-04T12:47:10.050Z,20.20
2018-12-04T12:49:36.040Z,20.20
2018-12-04T12:52:02.020Z,20.30
2018-12-04T12:54:27.994Z,20.20
2018-12-04T12:56:53.970Z,20.20
2018-12-04T12:59:19.949Z,20.30
2018-12-04T13:01:45.947Z,20.20
2018-12-04T13:04:11.925Z,20.20
2018-12-04T13:06:37.905Z,20.20
2018-12-04T13:09:03.987Z,20.20
2018-12-04T13:11:29.969Z,20.20
2018-12-04T13:13:55.983Z,20.20
2018-12-04T13:16:21.948Z,20.20
2018-12-04T13:18:47.950Z,20.20
2018-12-04T13:21:13.966Z,20.20
2018-12-04T13:23:39.970Z,20.20
2018-12-04T13:26:05.958Z,20.20
2018-12-04T13:28:31.956Z,20.20
2018-12-04T13:30:58.077Z,20.20
2018-12-04T13:33:24.227Z,20.20
2018-12-04T13:35:50.218Z,20.20
2018-12-04T13:38:16.254Z,20.20
2018-12-04T13:40:42.249Z,20.20
2018-12-04T13:43:08.257Z,20.20
2018-12-04T13:45:34.367Z,20.20
2018-12-04T13:48:00.875Z,20.20
2018-12-04T13:50:27.061Z,20.20
2018-12-04T13:52:53.045Z,20.20
2018-12-04T13:55:19.053Z,20.20
2018-12-04T13:57:50.600Z,20.20
2018-12-04T14:00:13.204Z,20.20
2018-12-04T14:02:39.307Z,20.20
2018-12-04T14:05:08.049Z,20.20
2018-12-04T14:07:33.430Z,20.20
2018-12-04T14:09:59.479Z,20.10
2018-12-04T14:12:25.564Z,20.20
2018-12-04T14:14:51.648Z,20.20
2018-12-04T14:17:17.636Z,20.10
2018-12-04T14:19:43.621Z,20.20
2018-12-04T14:22:09.642Z,20.20
2018-12-04T14:24:35.754Z,20.10
2018-12-04T14:27:01.732Z,20.10
2018-12-04T14:29:27.737Z,20.10
2018-12-04T14:31:53.844Z,20.20
2018-12-04T14:34:19.867Z,20.10
2018-12-04T14:36:45.982Z,20.20
2018-12-04T14:39:12.093Z,20.10
2018-12-04T14:41:38.122Z,20.10
2018-12-04T14:44:04.102Z,20.10
2018-12-04T14:46:30.150Z,20.10
2018-12-04T14:48:56.175Z,20.10
2018-12-04T14:51:22.136Z,20.10
2018-12-04T14:53:48.126Z,20.10
2018-12-04T14:56:14.186Z,20.10
2018-12-04T14:58:40.232Z,20.10
2018-12-04T15:01:06.269Z,20.10
2018-12-04T15:03:32.268Z,20.10
2018-12-04T15:05:58.345Z,20.10
2018-12-04T15:08:24.445Z,20.10
2018-12-04T15:10:50.588Z,20.10
2018-12-04T15:13:16.597Z,20.10
2018-12-04T15:15:42.668Z,20.10
2018-12-04T15:18:12.190Z,20.10
2018-12-04T15:20:38.296Z,20.10
2018-12-04T15:23:04.390Z,20.10
2018-12-04T15:25:30.479Z,20.10
2018-12-04T15:27:56.602Z,20.00
2018-12-04T15:30:22.714Z,20.10
2018-12-04T15:32:48.844Z,20.00
2018-12-04T15:35:14.862Z,20.10
2018-12-04T15:37:40.937Z,20.00
2018-12-04T15:40:07.085Z,20.00
2018-12-04T15:42:33.181Z,20.00
2018-12-04T15:44:59.307Z,20.00
2018-12-04T15:47:25.417Z,20.00
2018-12-04T15:49:51.489Z,20.10
2018-12-04T15:52:17.531Z,20.10
2018-12-04T15:54:43.580Z,20.10
2018-12-04T15:57:09.655Z,20.10
2018-12-04T15:59:35.666Z,20.10
2018-12-04T16:02:01.946Z,20.10
2018-12-04T16:04:27.996Z,20.10
2018-12-04T16:06:54.023Z,20.10
2018-12-04T16:09:20.035Z,20.20
2018-12-04T16:11:46.033Z,20.20
2018-12-04T16:14:12.033Z,20.20
2018-12-04T16:16:38.041Z,20.20
2018-12-04T16:19:04.039Z,20.20
2018-12-04T16:21:30.019Z,20.20
2018-12-04T16:23:56.016Z,20.20
2018-12-04T16:26:22.042Z,20.20
2018-12-04T16:28:48.038Z,20.20
2018-12-04T16:31:14.041Z,20.20
2018-12-04T16:33:40.035Z,20.20
2018-12-04T16:36:06.035Z,20.20
2018-12-04T16:38:32.055Z,20.20
2018-12-04T16:40:58.041Z,20.10
2018-12-04T16:43:24.062Z,20.10
2018-12-04T16:45:50.073Z,20.10
2018-12-04T16:48:16.117Z,20.10
2018-12-04T16:50:42.103Z,20.10
2018-12-04T16:53:08.250Z,20.10
2018-12-04T16:55:34.362Z,20.10
2018-12-04T16:58:01.367Z,20.10
2018-12-04T17:00:28.465Z,20.10
2018-12-04T17:02:54.526Z,20.10
2018-12-04T17:05:20.530Z,20.10
2018-12-04T17:07:46.585Z,20.10
2018-12-04T17:10:14.169Z,20.10
2018-12-04T17:12:40.133Z,20.20
2018-12-04T17:15:06.768Z,20.20
2018-12-04T17:17:32.835Z,20.20
2018-12-04T17:19:58.862Z,20.20
2018-12-04T17:22:24.879Z,20.30
2018-12-04T17:24:50.880Z,20.30
2018-12-04T17:27:16.868Z,20.30
2018-12-04T17:29:42.901Z,20.30
2018-12-04T17:32:08.862Z,20.40
2018-12-04T17:34:34.899Z,20.40
2018-12-04T17:37:00.899Z,20.40
2018-12-04T17:39:26.877Z,20.50
2018-12-04T17:41:52.845Z,20.60
2018-12-04T17:44:18.866Z,20.50
2018-12-04T17:46:44.872Z,20.60
2018-12-04T17:49:10.870Z,20.60
2018-12-04T17:51:36.900Z,20.70
2018-12-04T17:54:02.939Z,20.70
2018-12-04T17:56:28.976Z,20.70
2018-12-04T17:58:54.991Z,20.70
2018-12-04T18:01:20.979Z,20.80
2018-12-04T18:03:47.003Z,20.80
2018-12-04T18:06:12.981Z,20.80
2018-12-04T18:08:38.971Z,20.80
2018-12-04T18:11:05.217Z,20.80
2018-12-04T18:13:31.223Z,20.90
2018-12-04T18:15:57.199Z,20.90
2018-12-04T18:18:23.227Z,20.90
2018-12-04T18:20:49.219Z,21.00
2018-12-04T18:23:15.203Z,21.00
2018-12-04T18:25:41.761Z,21.00
2018-12-04T18:28:07.783Z,21.00
2018-12-04T18:30:33.795Z,21.10
2018-12-04T18:32:59.762Z,21.10
2018-12-04T18:35:25.767Z,21.10
2018-12-04T18:37:51.775Z,21.10
2018-12-04T18:40:17.811Z,21.20
2018-12-04T18:42:43.869Z,21.20
2018-12-04T18:45:10.912Z,21.20
2018-12-04T18:47:36.921Z,21.30
2018-12-04T18:50:02.951Z,21.30
2018-12-04T18:52:29.057Z,21.30
2018-12-04T18:54:55.098Z,21.30
2018-12-04T18:57:21.209Z,21.40
2018-12-04T18:59:47.194Z,21.40
2018-12-04T19:02:13.241Z,21.40
2018-12-04T19:04:39.246Z,21.40
2018-12-04T19:07:05.260Z,21.50
2018-12-04T19:09:31.262Z,21.50
2018-12-04T19:11:57.387Z,21.50
2018-12-04T19:14:23.413Z,21.50
2018-12-04T19:16:49.406Z,21.50
2018-12-04T19:19:15.387Z,21.60
2018-12-04T19:21:41.378Z,21.60
2018-12-04T19:24:07.389Z,21.60
2018-12-04T19:26:33.377Z,21.60
2018-12-04T19:28:59.380Z,21.60
2018-12-04T19:31:25.361Z,21.60
2018-12-04T19:33:51.395Z,21.60
2018-12-04T19:36:17.424Z,21.60
2018-12-04T19:38:49.913Z,21.70
2018-12-04T19:41:15.938Z,21.70
2018-12-04T19:43:41.942Z,21.70
2018-12-04T19:46:08.329Z,21.70
2018-12-04T19:48:34.358Z,21.70
2018-12-04T19:51:00.580Z,21.70
2018-12-04T19:53:26.577Z,21.80
2018-12-04T19:55:52.877Z,21.80
2018-12-04T19:58:19.404Z,21.80
2018-12-04T20:00:45.596Z,21.80
2018-12-04T20:03:11.832Z,21.90
2018-12-04T20:05:37.835Z,21.80
2018-12-04T20:08:03.887Z,21.90
2018-12-04T20:10:30.094Z,21.90
2018-12-04T20:12:56.247Z,21.90
2018-12-04T20:15:22.404Z,21.90
2018-12-04T20:17:48.523Z,21.90
2018-12-04T20:20:14.753Z,21.90
2018-12-04T20:22:40.821Z,22.00
2018-12-04T20:25:06.871Z,22.00
2018-12-04T20:27:32.956Z,22.00
2018-12-04T20:29:59.110Z,22.00
2018-12-04T20:32:25.134Z,22.00
2018-12-04T20:34:51.116Z,22.00
2018-12-04T20:37:17.223Z,22.00
2018-12-04T20:39:43.344Z,22.00
2018-12-04T20:42:10.303Z,22.00
2018-12-04T20:44:36.747Z,22.10
2018-12-04T20:47:02.788Z,22.00
2018-12-04T20:49:28.786Z,22.00
2018-12-04T20:51:54.765Z,22.10
2018-12-04T20:54:20.896Z,22.10
2018-12-04T20:56:47.289Z,22.10
2018-12-04T20:59:13.428Z,22.10
2018-12-04T21:01:39.547Z,22.10
2018-12-04T21:04:05.569Z,22.10
2018-12-04T21:06:31.639Z,22.10
2018-12-04T21:08:57.736Z,22.20
2018-12-04T21:11:23.753Z,22.10
2018-12-04T21:13:49.750Z,22.00
2018-12-04T21:16:15.752Z,22.00
2018-12-04T21:18:42.073Z,21.90
2018-12-04T21:21:08.491Z,21.90
2018-12-04T21:23:34.540Z,21.80
2018-12-04T21:26:00.555Z,21.80
2018-12-04T21:28:26.556Z,21.80
2018-12-04T21:34:00.908Z,21.70
2018-12-04T21:36:33.119Z,21.70
2018-12-04T21:39:01.123Z,21.70
2018-12-04T21:41:33.115Z,21.70
2018-12-04T21:44:05.177Z,21.70
2018-12-04T21:46:37.309Z,21.70
2018-12-04T21:49:03.295Z,21.60
2018-12-04T21:51:29.289Z,21.60
2018-12-04T21:53:55.289Z,21.60
2018-12-04T21:56:21.296Z,21.60
2018-12-04T21:58:47.304Z,21.60
2018-12-04T22:01:13.313Z,21.60
2018-12-04T22:03:39.293Z,21.60
2018-12-04T22:06:05.284Z,21.50
2018-12-04T22:08:31.303Z,21.50
2018-12-04T22:10:57.287Z,21.50
2018-12-04T22:13:23.279Z,21.50
2018-12-04T22:15:49.272Z,21.40
2018-12-04T22:18:15.245Z,21.40
2018-12-04T22:20:41.227Z,21.40
2018-12-04T22:23:07.213Z,21.40
2018-12-04T22:25:33.215Z,21.40
2018-12-04T22:27:59.184Z,21.30
2018-12-04T22:30:25.185Z,21.30
2018-12-04T22:32:51.173Z,21.30
2018-12-04T22:35:17.168Z,21.30
2018-12-04T22:37:43.145Z,21.30
2018-12-04T22:40:09.120Z,21.20
2018-12-04T22:42:35.967Z,21.20
2018-12-04T22:45:08.336Z,21.20
2018-12-04T22:47:34.324Z,21.20
2018-12-04T22:50:00.302Z,21.20
2018-12-04T22:52:26.924Z,21.20
2018-12-04T22:54:52.946Z,21.10
2018-12-04T22:57:18.962Z,21.10
2018-12-04T22:59:44.951Z,21.20
2018-12-04T23:02:10.967Z,21.10
2018-12-04T23:04:36.959Z,21.20
2018-12-04T23:07:02.978Z,21.10
2018-12-04T23:09:28.961Z,21.10
2018-12-04T23:11:54.950Z,21.20
2018-12-04T23:14:20.932Z,21.20
2018-12-04T23:16:46.915Z,21.10
2018-12-04T23:19:12.879Z,21.10
2018-12-04T23:21:38.873Z,21.10
2018-12-04T23:24:04.856Z,21.10
2018-12-04T23:26:30.833Z,21.10
2018-12-04T23:28:56.827Z,21.10
2018-12-04T23:31:22.821Z,21.10
2018-12-04T23:33:48.811Z,21.10
2018-12-04T23:36:14.800Z,21.10
2018-12-04T23:38:40.828Z,21.10
2018-12-04T23:41:06.814Z,21.00
2018-12-04T23:43:32.799Z,21.10
2018-12-04T23:45:58.775Z,21.00
2018-12-04T23:48:24.774Z,21.00
2018-12-04T23:50:50.758Z,21.00
2018-12-04T23:53:16.743Z,21.00
2018-12-04T23:55:42.697Z,21.00
2018-12-04T23:58:08.661Z,21.00
